Time;durP1;ratioP1;P1;durP2;ratioP2;P2;SDS_P1;SDS_P2;PMS_P1;PMS_P2;Temp;Humidity;BMP_temperature;BMP_pressure;BME280_temperature;BME280_humidity;BME280_pressure;Samples;Min_cycle;Max_cycle;Signal;HPM_P1;HPM_P2
2022/03/31 00:00:32;;;;;;;18.00;10.93;;;5.70;99.90;;;;;;4952624;28;20238;-68
2022/03/31 00:03:01;;;;;;;14.43;11.17;;;5.70;99.90;;;;;;4946372;28;20269;-67
2022/03/31 00:05:32;;;;;;;16.53;10.73;;;5.60;99.90;;;;;;4975997;28;20221;-68
2022/03/31 00:08:07;;;;;;;14.00;10.30;;;5.60;99.90;;;;;;4962430;28;20232;-68
2022/03/31 00:10:39;;;;;;;13.17;10.17;;;5.60;99.90;;;;;;4961417;28;20194;-68
2022/03/31 00:13:11;;;;;;;17.13;10.73;;;5.60;99.90;;;;;;4970072;28;20203;-67
2022/03/31 00:15:43;;;;;;;18.83;10.60;;;5.60;99.90;;;;;;4963701;28;20202;-67
2022/03/31 00:18:14;;;;;;;17.67;11.50;;;5.60;99.90;;;;;;4976211;28;20193;-67
2022/03/31 00:20:44;;;;;;;15.33;11.40;;;5.60;99.90;;;;;;4957115;28;20313;-67
2022/03/31 00:23:11;;;;;;;17.37;12.23;;;5.60;99.90;;;;;;4950246;28;20284;-67
2022/03/31 00:25:42;;;;;;;22.13;12.00;;;5.60;1.00;;;;;;4960626;28;20218;-67
2022/03/31 00:28:12;;;;;;;17.13;11.10;;;5.60;1.00;;;;;;4978318;28;20230;-68
2022/03/31 00:30:40;;;;;;;19.20;11.60;;;5.50;1.00;;;;;;4961375;28;20203;-68
2022/03/31 00:33:10;;;;;;;18.73;12.20;;;5.70;1.00;;;;;;4967279;28;20202;-66
2022/03/31 00:35:37;;;;;;;17.57;12.03;;;5.60;99.90;;;;;;4982735;28;20207;-67
2022/03/31 00:38:04;;;;;;;17.17;12.00;;;5.60;1.00;;;;;;4989018;28;20209;-67
2022/03/31 00:40:32;;;;;;;15.47;11.17;;;5.70;1.00;;;;;;4971599;28;20268;-67
2022/03/31 00:42:59;;;;;;;20.80;12.60;;;5.70;1.00;;;;;;4964580;28;20752;-67
2022/03/31 00:45:32;;;;;;;13.83;11.37;;;5.60;1.00;;;;;;4979589;28;20231;-67
2022/03/31 00:47:59;;;;;;;22.80;12.30;;;5.70;1.00;;;;;;4980819;28;20583;-67
2022/03/31 00:50:27;;;;;;;17.07;11.83;;;5.70;1.00;;;;;;4971699;28;20599;-69
2022/03/31 00:52:57;;;;;;;18.80;13.07;;;5.70;1.00;;;;;;4981038;28;20661;-69
2022/03/31 00:55:45;;;;;;;16.70;12.17;;;5.70;1.00;;;;;;4981757;28;20256;-67
2022/03/31 00:58:13;;;;;;;20.43;12.93;;;5.70;1.00;;;;;;4980771;28;20210;-68
2022/03/31 01:00:40;;;;;;;19.37;13.50;;;5.70;1.00;;;;;;4980010;28;20213;-68
2022/03/31 01:03:08;;;;;;;19.37;12.30;;;5.80;1.00;;;;;;4970843;28;20206;-68
2022/03/31 01:05:39;;;;;;;20.33;13.23;;;5.80;1.00;;;;;;4964164;28;20205;-68
2022/03/31 01:08:06;;;;;;;20.13;12.43;;;5.90;99.90;;;;;;4963610;28;20222;-68
2022/03/31 01:10:33;;;;;;;22.10;12.63;;;5.90;99.90;;;;;;4965617;28;20568;-68
2022/03/31 01:13:05;;;;;;;18.03;12.57;;;5.90;99.90;;;;;;4981011;28;20198;-68
2022/03/31 01:15:35;;;;;;;21.73;12.20;;;5.90;99.90;;;;;;4979603;28;20928;-68
2022/03/31 01:18:03;;;;;;;20.50;12.83;;;5.80;1.00;;;;;;4980772;28;20597;-68
2022/03/31 01:20:35;;;;;;;20.37;12.63;;;6.00;1.00;;;;;;4970660;28;20249;-68
2022/03/31 01:23:04;;;;;;;20.13;13.27;;;6.00;1.00;;;;;;4963289;28;20638;-68
2022/03/31 01:25:31;;;;;;;22.13;13.23;;;6.00;1.00;;;;;;4979410;28;20241;-68
2022/03/31 01:27:58;;;;;;;18.67;13.27;;;5.90;1.00;;;;;;4979294;28;20210;-69
2022/03/31 01:30:25;;;;;;;21.73;13.67;;;5.90;1.00;;;;;;4980927;28;20709;-68
2022/03/31 01:32:52;;;;;;;19.37;12.97;;;5.80;1.00;;;;;;4969799;28;20210;-68
2022/03/31 01:35:19;;;;;;;18.23;13.00;;;5.80;1.00;;;;;;4954799;28;20229;-68
2022/03/31 01:37:49;;;;;;;20.97;13.93;;;5.80;1.00;;;;;;4957753;28;20834;-68
2022/03/31 01:40:17;;;;;;;20.27;14.03;;;5.80;1.00;;;;;;4961511;28;20221;-66
2022/03/31 01:42:46;;;;;;;20.73;13.60;;;5.90;1.00;;;;;;4971704;28;20197;-66
2022/03/31 01:45:15;;;;;;;20.73;12.73;;;5.90;1.00;;;;;;4988178;28;20194;-66
2022/03/31 01:47:45;;;;;;;26.33;13.07;;;5.90;1.00;;;;;;4965833;28;20202;-66
2022/03/31 01:50:13;;;;;;;20.70;13.97;;;5.90;1.00;;;;;;4964825;28;20352;-67
2022/03/31 01:52:44;;;;;;;23.93;13.93;;;5.80;1.00;;;;;;4983597;28;20288;-68
2022/03/31 01:55:13;;;;;;;22.03;13.30;;;5.70;1.00;;;;;;4964739;28;20201;-68
2022/03/31 01:57:41;;;;;;;20.97;13.87;;;5.60;1.00;;;;;;4978847;28;20201;-67
2022/03/31 02:00:09;;;;;;;20.93;14.27;;;5.70;83.00;;;;;;4970637;28;20201;-69
2022/03/31 02:02:39;;;;;;;19.50;14.10;;;5.70;99.90;;;;;;4979863;28;20225;-69
2022/03/31 02:05:07;;;;;;;21.23;14.90;;;5.60;99.90;;;;;;4970786;28;20191;-68
2022/03/31 02:07:38;;;;;;;21.23;14.80;;;5.50;99.90;;;;;;4963153;28;20204;-69
2022/03/31 02:10:15;;;;;;;22.53;15.47;;;5.50;99.90;;;;;;4979850;28;20248;-69
2022/03/31 02:12:44;;;;;;;23.87;16.13;;;5.50;1.00;;;;;;4969010;28;20292;-70
2022/03/31 02:15:14;;;;;;;24.93;15.53;;;5.50;99.90;;;;;;4964261;28;20244;-69
2022/03/31 02:17:43;;;;;;;24.23;17.43;;;5.50;1.00;;;;;;4965561;28;20288;-69
2022/03/31 02:20:10;;;;;;;24.43;16.60;;;5.60;1.00;;;;;;4967110;28;20720;-69
2022/03/31 02:22:40;;;;;;;24.23;16.20;;;5.50;1.00;;;;;;4966877;28;20225;-69
2022/03/31 02:25:08;;;;;;;30.37;15.60;;;5.50;99.90;;;;;;4949764;28;20210;-68
2022/03/31 02:27:36;;;;;;;21.87;14.67;;;5.60;1.00;;;;;;4981645;28;20208;-67
2022/03/31 02:30:13;;;;;;;30.13;17.23;;;5.60;99.90;;;;;;4963117;28;20735;-67
2022/03/31 02:32:41;;;;;;;22.67;15.37;;;5.50;16.10;;;;;;4979459;28;20236;-67
2022/03/31 02:35:11;;;;;;;30.30;16.57;;;5.30;99.90;;;;;;4980488;28;20189;-67
2022/03/31 02:37:40;;;;;;;24.00;15.13;;;5.20;99.90;;;;;;4965813;28;20567;-67
2022/03/31 02:40:07;;;;;;;24.73;16.17;;;5.10;1.00;;;;;;4957499;28;20624;-66
2022/03/31 02:42:36;;;;;;;25.03;16.97;;;5.10;1.00;;;;;;4977095;28;20894;-67
2022/03/31 02:45:09;;;;;;;27.17;16.63;;;5.00;99.90;;;;;;4966189;28;20205;-66
2022/03/31 02:47:36;;;;;;;24.93;16.40;;;5.00;99.90;;;;;;4972343;28;20209;-66
2022/03/31 02:50:04;;;;;;;24.30;17.40;;;4.90;99.90;;;;;;4981431;28;20214;-66
2022/03/31 02:55:24;;;;;;;33.03;17.60;;;4.80;1.00;;;;;;4980855;28;20263;-65
2022/03/31 02:55:24;;;;;;;23.20;16.77;;;4.80;1.00;;;;;;4982476;28;20198;-65
2022/03/31 02:58:03;;;;;;;29.37;17.93;;;4.80;1.00;;;;;;4981923;28;20256;-65
2022/03/31 03:00:32;;;;;;;27.77;17.20;;;4.80;1.00;;;;;;4971889;28;20225;-65
2022/03/31 03:03:03;;;;;;;29.73;18.27;;;4.80;99.90;;;;;;4981400;28;20248;-65
2022/03/31 03:05:34;;;;;;;31.97;17.73;;;4.80;1.00;;;;;;4979650;28;20273;-65
2022/03/31 03:08:01;;;;;;;28.27;17.80;;;4.70;1.00;;;;;;4965529;28;20202;-65
2022/03/31 03:10:29;;;;;;;26.17;16.87;;;4.70;1.00;;;;;;4964200;28;20779;-65
2022/03/31 03:12:59;;;;;;;32.00;17.90;;;4.70;99.90;;;;;;4963201;28;20665;-65
2022/03/31 03:15:26;;;;;;;29.03;19.00;;;4.70;99.90;;;;;;4971204;28;20185;-65
2022/03/31 03:17:55;;;;;;;24.80;17.87;;;4.70;1.00;;;;;;4965662;28;20233;-65
2022/03/31 03:20:24;;;;;;;28.40;18.00;;;4.60;1.00;;;;;;4964746;28;20202;-65
2022/03/31 03:23:00;;;;;;;29.57;18.93;;;4.60;1.00;;;;;;4983082;28;20218;-65
2022/03/31 03:25:27;;;;;;;28.90;18.80;;;4.50;1.00;;;;;;4964527;28;20242;-65
2022/03/31 03:27:55;;;;;;;29.63;18.07;;;4.50;1.00;;;;;;4965155;28;20211;-65
2022/03/31 03:30:24;;;;;;;28.37;19.23;;;4.40;99.90;;;;;;4965052;28;20210;-65
2022/03/31 03:32:54;;;;;;;25.90;17.17;;;4.40;99.90;;;;;;4982698;28;20237;-66
2022/03/31 03:35:23;;;;;;;30.47;17.13;;;4.60;99.90;;;;;;4981533;28;20232;-67
2022/03/31 03:37:50;;;;;;;29.80;17.53;;;4.60;99.90;;;;;;4981215;28;20208;-67
2022/03/31 03:40:20;;;;;;;29.53;17.43;;;4.60;99.90;;;;;;4971177;28;20248;-66
2022/03/31 03:42:49;;;;;;;28.83;18.00;;;4.50;99.90;;;;;;4975300;28;20324;-66
2022/03/31 03:45:16;;;;;;;32.60;18.60;;;4.60;99.90;;;;;;4982359;28;20261;-65
2022/03/31 03:47:48;;;;;;;36.10;19.10;;;4.60;99.90;;;;;;4972110;28;20580;-66
2022/03/31 03:50:20;;;;;;;37.53;20.27;;;4.60;99.90;;;;;;4964263;28;20213;-68
2022/03/31 03:52:53;;;;;;;33.73;18.97;;;4.60;99.90;;;;;;4965499;28;20260;-65
2022/03/31 03:55:20;;;;;;;29.73;19.17;;;4.70;99.90;;;;;;4980840;28;20257;-66
2022/03/31 03:57:53;;;;;;;33.70;18.13;;;4.60;99.90;;;;;;4980381;28;20583;-66
2022/03/31 04:00:20;;;;;;;33.67;18.57;;;4.70;99.90;;;;;;4963914;28;20220;-66
2022/03/31 04:02:47;;;;;;;31.00;19.23;;;4.70;99.90;;;;;;4971374;28;20221;-66
2022/03/31 04:05:14;;;;;;;33.43;20.53;;;4.60;99.90;;;;;;4970528;28;20279;-66
2022/03/31 04:07:43;;;;;;;33.07;20.57;;;4.70;99.90;;;;;;4972236;28;20257;-66
2022/03/31 04:10:11;;;;;;;33.50;18.97;;;4.70;99.90;;;;;;4964588;28;20245;-66
2022/03/31 04:12:39;;;;;;;38.07;21.53;;;4.80;99.90;;;;;;4972878;28;20205;-65
2022/03/31 04:15:07;;;;;;;31.73;19.53;;;4.90;99.90;;;;;;4979392;28;20214;-66
2022/03/31 04:17:35;;;;;;;32.97;20.03;;;4.80;99.90;;;;;;4969555;28;20208;-66
2022/03/31 04:20:04;;;;;;;35.70;20.80;;;4.90;99.90;;;;;;4980360;28;20231;-66
2022/03/31 04:22:33;;;;;;;33.43;20.33;;;4.80;99.90;;;;;;4951397;28;20230;-66
2022/03/31 04:25:04;;;;;;;35.57;20.17;;;4.70;99.90;;;;;;4980411;28;20198;-67
2022/03/31 04:27:34;;;;;;;39.13;21.30;;;4.90;99.90;;;;;;4980962;28;20248;-66
2022/03/31 04:30:03;;;;;;;40.97;21.77;;;4.90;99.90;;;;;;4979495;28;20265;-66
2022/03/31 04:32:30;;;;;;;34.90;20.80;;;4.90;99.90;;;;;;4949399;28;20229;-65
2022/03/31 04:35:00;;;;;;;35.40;21.33;;;4.90;99.90;;;;;;4964028;28;20197;-65
2022/03/31 04:37:27;;;;;;;37.47;20.43;;;4.80;99.90;;;;;;4980256;28;20673;-65
2022/03/31 04:39:54;;;;;;;35.60;21.30;;;4.80;99.90;;;;;;4955024;28;20237;-65
2022/03/31 04:42:21;;;;;;;39.70;21.63;;;4.90;99.90;;;;;;4980764;28;20198;-65
2022/03/31 04:44:48;;;;;;;37.77;21.33;;;4.80;99.90;;;;;;4970692;28;20812;-64
2022/03/31 04:47:15;;;;;;;41.67;22.57;;;4.80;99.90;;;;;;4962187;28;20225;-65
2022/03/31 04:49:45;;;;;;;38.77;22.27;;;4.80;99.90;;;;;;4981507;28;20217;-65
2022/03/31 04:52:11;;;;;;;41.53;23.73;;;4.80;99.90;;;;;;4978262;28;20613;-65
2022/03/31 04:54:43;;;;;;;44.27;23.23;;;4.90;99.90;;;;;;4962848;28;20285;-65
2022/03/31 04:57:19;;;;;;;44.97;23.73;;;4.80;99.90;;;;;;4971140;28;20213;-65
2022/03/31 04:59:46;;;;;;;44.93;23.43;;;4.80;99.90;;;;;;4981314;28;20224;-65
2022/03/31 05:02:13;;;;;;;44.33;22.87;;;4.80;99.90;;;;;;4961780;28;20232;-65
2022/03/31 05:04:42;;;;;;;41.27;23.33;;;4.80;99.90;;;;;;4971741;28;20197;-65
2022/03/31 05:07:11;;;;;;;44.90;24.10;;;4.80;99.90;;;;;;4948485;28;20209;-67
2022/03/31 05:09:41;;;;;;;44.23;23.90;;;4.80;99.90;;;;;;4963655;28;20710;-65
2022/03/31 05:12:12;;;;;;;49.27;26.30;;;4.80;99.90;;;;;;4980092;28;20213;-65
2022/03/31 05:14:42;;;;;;;45.77;25.00;;;4.70;99.90;;;;;;4981485;28;20595;-64
2022/03/31 05:17:10;;;;;;;46.57;25.20;;;4.80;99.90;;;;;;4962728;28;20665;-65
2022/03/31 05:19:38;;;;;;;48.30;26.30;;;4.80;99.90;;;;;;4981445;28;20260;-65
2022/03/31 05:22:05;;;;;;;48.23;27.47;;;4.80;99.90;;;;;;4981732;28;20249;-65
2022/03/31 05:24:33;;;;;;;46.93;26.97;;;4.70;99.90;;;;;;4979289;28;20237;-64
2022/03/31 05:27:00;;;;;;;48.53;29.03;;;4.80;99.90;;;;;;4970477;28;20613;-66
2022/03/31 05:29:29;;;;;;;52.60;29.53;;;4.70;99.90;;;;;;4962763;28;20245;-65
2022/03/31 05:31:57;;;;;;;53.23;29.20;;;4.80;99.90;;;;;;4963754;28;20221;-64
2022/03/31 05:34:26;;;;;;;54.73;29.23;;;4.90;99.90;;;;;;4970325;28;20191;-64
2022/03/31 05:36:54;;;;;;;59.40;31.10;;;4.80;99.90;;;;;;4977692;28;20239;-65
2022/03/31 05:39:23;;;;;;;56.83;29.47;;;4.80;99.90;;;;;;4979378;28;20193;-65
2022/03/31 05:41:50;;;;;;;56.67;30.60;;;4.70;99.90;;;;;;4971902;28;20658;-65
2022/03/31 05:44:17;;;;;;;51.13;30.17;;;4.80;99.90;;;;;;4959828;28;20198;-64
2022/03/31 05:46:44;;;;;;;59.70;31.97;;;4.80;99.90;;;;;;4959882;28;20261;-65
2022/03/31 05:49:14;;;;;;;56.80;31.07;;;4.90;99.90;;;;;;4963856;28;20313;-64
2022/03/31 05:51:41;;;;;;;58.53;29.53;;;4.90;99.90;;;;;;4960762;28;20285;-66
2022/03/31 05:54:08;;;;;;;79.33;44.20;;;4.90;99.90;;;;;;4977902;28;20198;-65
2022/03/31 05:56:39;;;;;;;61.20;35.43;;;4.90;99.90;;;;;;4961152;28;20639;-65
2022/03/31 05:59:06;;;;;;;59.80;34.07;;;4.90;99.90;;;;;;4960561;28;20226;-64
2022/03/31 06:01:36;;;;;;;47.63;26.27;;;4.90;99.90;;;;;;4970472;28;20293;-66
2022/03/31 06:04:12;;;;;;;51.57;30.43;;;4.90;99.90;;;;;;4963680;28;20222;-66
2022/03/31 06:06:41;;;;;;;47.93;28.67;;;5.00;99.90;;;;;;4976308;28;20203;-66
2022/03/31 06:09:08;;;;;;;42.90;25.33;;;5.10;99.90;;;;;;4959489;28;20602;-66
2022/03/31 06:11:34;;;;;;;39.00;23.10;;;5.10;99.90;;;;;;4969424;28;20226;-66
2022/03/31 06:14:12;;;;;;;37.37;22.67;;;5.30;96.10;;;;;;4968569;28;20198;-66
2022/03/31 06:16:41;;;;;;;37.10;21.33;;;5.20;1.00;;;;;;4977092;28;20215;-66
2022/03/31 06:19:08;;;;;;;37.40;22.23;;;5.20;1.00;;;;;;4978435;28;20194;-66
2022/03/31 06:21:36;;;;;;;44.27;23.37;;;5.30;1.00;;;;;;4963584;28;21101;-65
2022/03/31 06:24:09;;;;;;;34.40;21.40;;;5.40;1.00;;;;;;4977971;28;20202;-64
2022/03/31 06:26:36;;;;;;;28.57;18.27;;;5.60;71.20;;;;;;4979832;28;20650;-65
2022/03/31 06:29:07;;;;;;;44.70;25.50;;;5.70;1.00;;;;;;4977114;28;20218;-65
2022/03/31 06:31:34;;;;;;;36.60;19.20;;;5.70;1.00;;;;;;4970610;28;20242;-65
2022/03/31 06:34:05;;;;;;;40.63;23.03;;;5.60;99.90;;;;;;4977933;28;20202;-65
2022/03/31 06:36:33;;;;;;;31.17;17.90;;;5.70;99.90;;;;;;4966203;28;20261;-65
2022/03/31 06:39:02;;;;;;;27.40;16.30;;;5.60;99.90;;;;;;4969804;28;20242;-64
2022/03/31 06:41:29;;;;;;;30.57;19.43;;;5.60;26.50;;;;;;4940415;28;1117873;-66
2022/03/31 06:43:56;;;;;;;44.23;24.30;;;5.60;1.00;;;;;;4979573;28;20207;-65
2022/03/31 06:46:23;;;;;;;50.03;26.33;;;5.60;1.00;;;;;;4992155;28;20781;-65
2022/03/31 06:48:52;;;;;;;45.83;22.57;;;5.60;1.00;;;;;;4949813;28;20569;-66
2022/03/31 06:51:23;;;;;;;36.53;20.97;;;5.50;1.00;;;;;;4939551;28;20234;-66
2022/03/31 06:53:51;;;;;;;42.77;24.27;;;5.50;99.90;;;;;;4985429;28;20199;-67
2022/03/31 06:56:27;;;;;;;36.53;21.50;;;5.50;99.90;;;;;;4969983;28;20214;-67
2022/03/31 06:58:54;;;;;;;29.13;16.63;;;5.70;99.90;;;;;;4963411;28;20475;-66
2022/03/31 07:01:22;;;;;;;32.17;17.80;;;5.80;99.90;;;;;;4962767;28;20221;-66
2022/03/31 07:03:49;;;;;;;27.80;17.20;;;5.90;99.90;;;;;;4973381;28;20721;-66
2022/03/31 07:06:16;;;;;;;27.07;16.53;;;5.90;1.00;;;;;;4961264;28;20261;-66
2022/03/31 07:08:48;;;;;;;27.70;18.90;;;6.10;1.00;;;;;;4956525;28;20245;-66
2022/03/31 07:11:20;;;;;;;23.43;14.77;;;6.30;99.90;;;;;;4954093;28;20214;-66
2022/03/31 07:13:49;;;;;;;26.17;15.57;;;6.50;1.00;;;;;;4960427;28;20594;-68
2022/03/31 07:16:24;;;;;;;23.60;14.80;;;6.60;1.00;;;;;;4948004;28;20233;-66
2022/03/31 07:18:51;;;;;;;26.23;16.00;;;6.80;1.00;;;;;;4962519;28;20209;-66
2022/03/31 07:21:18;;;;;;;22.70;13.83;;;6.90;99.90;;;;;;4962438;28;20226;-66
2022/03/31 07:23:48;;;;;;;22.90;15.20;;;6.60;1.00;;;;;;4962239;28;20202;-66
2022/03/31 07:26:15;;;;;;;25.40;14.93;;;6.50;1.00;;;;;;4958358;28;20924;-65
2022/03/31 07:28:44;;;;;;;22.47;14.97;;;6.50;1.00;;;;;;4946019;28;20677;-66
2022/03/31 07:31:11;;;;;;;30.57;16.43;;;6.40;1.00;;;;;;4957157;28;20242;-66
2022/03/31 07:33:38;;;;;;;24.80;15.93;;;6.30;1.00;;;;;;4962387;28;20989;-66
2022/03/31 07:36:09;;;;;;;32.93;17.97;;;6.30;1.00;;;;;;4947487;28;20194;-66
2022/03/31 07:38:36;;;;;;;33.37;20.43;;;6.30;1.00;;;;;;4963711;28;21667;-66
2022/03/31 07:41:07;;;;;;;37.57;21.53;;;6.40;1.00;;;;;;4960876;28;20256;-65
2022/03/31 07:43:35;;;;;;;32.10;20.30;;;6.20;99.90;;;;;;4984661;28;20672;-65
2022/03/31 07:46:02;;;;;;;35.47;20.90;;;6.20;99.90;;;;;;4979165;28;20256;-65
2022/03/31 07:48:31;;;;;;;37.30;23.50;;;6.20;99.90;;;;;;4952578;28;20260;-66
2022/03/31 07:50:59;;;;;;;33.50;20.90;;;6.50;99.90;;;;;;4975523;28;20252;-65
2022/03/31 07:53:27;;;;;;;38.93;21.17;;;6.60;1.00;;;;;;4952718;28;21826;-65
2022/03/31 07:55:54;;;;;;;35.23;23.10;;;6.70;1.00;;;;;;4937963;28;20206;-66
2022/03/31 07:58:24;;;;;;;34.57;22.40;;;6.80;78.70;;;;;;4950315;28;20193;-66
2022/03/31 08:00:52;;;;;;;36.70;24.70;;;6.90;87.50;;;;;;4964764;28;20669;-67
2022/03/31 08:03:22;;;;;;;35.17;22.40;;;7.10;99.90;;;;;;4983849;28;20840;-68
2022/03/31 08:05:51;;;;;;;34.57;23.43;;;7.20;1.00;;;;;;4960305;28;20214;-67
2022/03/31 08:08:19;;;;;;;29.47;20.83;;;7.20;1.00;;;;;;4963002;28;20194;-66
2022/03/31 08:10:48;;;;;;;30.93;20.87;;;7.40;1.00;;;;;;4977018;28;20923;-67
2022/03/31 08:13:26;;;;;;;32.70;21.53;;;7.30;99.90;;;;;;4980909;28;20192;-66
2022/03/31 08:15:54;;;;;;;31.03;21.47;;;7.30;99.90;;;;;;4981732;28;20189;-66
2022/03/31 08:18:31;;;;;;;33.60;21.50;;;7.40;99.90;;;;;;4973042;28;20255;-67
2022/03/31 08:20:58;;;;;;;31.60;21.17;;;7.30;99.90;;;;;;4978360;28;20201;-67
2022/03/31 08:23:26;;;;;;;30.87;20.87;;;7.40;84.90;;;;;;4966349;28;20209;-68
2022/03/31 08:25:55;;;;;;;32.70;21.80;;;7.40;90.50;;;;;;4962590;28;20201;-66
2022/03/31 08:31:42;;;;;;;33.97;22.23;;;7.60;99.90;;;;;;1364727;26;20246;-68
2022/03/31 08:34:09;;;;;;;27.63;20.07;;;8.00;95.30;;;;;;4920517;28;20221;-66
2022/03/31 08:36:37;;;;;;;26.80;20.20;;;8.50;1.00;;;;;;4942279;28;21504;-66
2022/03/31 08:39:05;;;;;;;27.50;18.47;;;8.60;1.00;;;;;;4942514;28;20258;-66
2022/03/31 08:41:33;;;;;;;27.43;19.43;;;8.70;1.00;;;;;;4945487;28;20225;-66
2022/03/31 08:44:00;;;;;;;25.60;18.90;;;8.50;1.00;;;;;;4961486;28;20198;-68
2022/03/31 08:46:32;;;;;;;24.20;18.00;;;8.60;99.90;;;;;;4925941;28;20191;-69
2022/03/31 08:49:00;;;;;;;27.13;19.03;;;8.30;99.90;;;;;;4945614;28;20198;-68
2022/03/31 08:51:30;;;;;;;28.13;20.53;;;7.80;99.90;;;;;;4943324;28;20273;-66
2022/03/31 08:54:00;;;;;;;28.33;19.13;;;7.80;99.90;;;;;;4945742;28;20202;-66
2022/03/31 08:56:29;;;;;;;25.30;18.87;;;7.80;99.90;;;;;;4961479;28;20191;-66
2022/03/31 08:59:16;;;;;;;27.93;19.07;;;8.10;99.90;;;;;;4947525;28;20202;-66
2022/03/31 09:01:43;;;;;;;26.23;18.63;;;8.00;99.90;;;;;;4939926;28;20198;-66
2022/03/31 09:04:23;;;;;;;27.83;20.10;;;8.10;99.90;;;;;;4944421;28;20210;-66
2022/03/31 09:07:03;;;;;;;24.53;18.10;;;8.10;99.90;;;;;;4940878;28;20297;-66
2022/03/31 09:09:31;;;;;;;25.57;17.33;;;8.40;99.90;;;;;;4939489;28;20285;-67
2022/03/31 09:11:58;;;;;;;25.97;19.23;;;8.60;1.00;;;;;;4927927;28;20739;-68
2022/03/31 09:14:45;;;;;;;28.13;19.43;;;8.80;20.60;;;;;;4928191;28;20193;-68
2022/03/31 09:17:16;;;;;;;23.10;18.10;;;9.10;1.00;;;;;;4929957;28;20285;-67
2022/03/31 09:19:43;;;;;;;23.60;16.77;;;9.40;1.00;;;;;;4960043;28;20190;-69
2022/03/31 09:22:13;;;;;;;23.10;16.33;;;9.50;1.00;;;;;;4944886;28;20285;-68
2022/03/31 09:24:40;;;;;;;21.40;17.40;;;9.40;1.00;;;;;;4928104;28;20217;-66
2022/03/31 09:27:09;;;;;;;25.30;18.37;;;8.80;1.00;;;;;;4942831;28;20218;-66
2022/03/31 09:29:36;;;;;;;27.73;19.57;;;8.40;99.90;;;;;;4948684;28;20279;-68
2022/03/31 09:32:09;;;;;;;25.93;20.43;;;8.20;99.90;;;;;;4920394;28;20234;-66
2022/03/31 09:34:47;;;;;;;24.90;19.43;;;8.00;99.90;;;;;;4941013;28;20682;-66
2022/03/31 09:37:15;;;;;;;28.87;20.53;;;8.10;99.90;;;;;;4939752;28;20264;-66
2022/03/31 09:39:42;;;;;;;29.23;20.03;;;8.60;99.90;;;;;;4941782;28;20202;-66
2022/03/31 09:42:14;;;;;;;26.80;19.17;;;9.10;1.00;;;;;;4945654;28;20302;-66
2022/03/31 09:44:42;;;;;;;30.43;19.53;;;9.50;1.00;;;;;;4928077;28;20560;-66
2022/03/31 09:47:12;;;;;;;26.40;19.17;;;9.80;1.00;;;;;;4940719;28;20277;-67
2022/03/31 09:49:39;;;;;;;27.33;19.27;;;10.10;1.00;;;;;;4926842;28;20388;-68
2022/03/31 09:56:14;;;;;;;27.73;20.10;;;9.70;1.00;;;;;;4957891;28;20186;-67
2022/03/31 09:58:46;;;;;;;25.10;18.57;;;9.90;1.00;;;;;;4937753;28;20297;-65
2022/03/31 10:01:14;;;;;;;29.93;21.10;;;9.80;1.00;;;;;;4940300;28;20199;-68
2022/03/31 10:03:42;;;;;;;27.30;20.53;;;9.40;1.00;;;;;;4913036;28;20210;-67
2022/03/31 10:06:12;;;;;;;29.90;20.10;;;9.30;1.00;;;;;;4938197;28;20270;-66
2022/03/31 10:08:42;;;;;;;24.83;18.93;;;9.40;1.00;;;;;;4940863;28;20623;-67
2022/03/31 10:11:17;;;;;;;24.80;18.93;;;9.70;1.00;;;;;;4943310;28;20676;-66
2022/03/31 10:14:05;;;;;;;24.07;18.23;;;10.20;99.90;;;;;;4958566;28;20195;-67
2022/03/31 10:16:59;;;;;;;26.73;19.50;;;9.60;99.90;;;;;;4925511;28;20276;-68
2022/03/31 10:19:35;;;;;;;24.53;16.93;;;9.70;99.90;;;;;;4945657;28;20206;-68
2022/03/31 10:25:09;;;;;;;25.40;17.90;;;10.00;99.90;;;;;;4955629;28;20209;-68
2022/03/31 10:27:48;;;;;;;24.70;17.80;;;9.90;99.90;;;;;;4942156;28;20232;-68
2022/03/31 10:30:23;;;;;;;25.47;18.77;;;9.70;99.90;;;;;;4939115;28;20733;-68
2022/03/31 10:33:02;;;;;;;27.27;19.00;;;9.50;1.00;;;;;;4931883;28;20238;-68
2022/03/31 10:35:40;;;;;;;25.87;19.47;;;9.10;1.00;;;;;;4927219;28;21224;-67
2022/03/31 10:38:23;;;;;;;23.63;18.83;;;9.30;1.00;;;;;;4928765;28;20293;-68
2022/03/31 10:41:03;;;;;;;22.57;17.60;;;9.60;1.00;;;;;;4959050;28;20752;-66
2022/03/31 10:43:46;;;;;;;23.53;16.73;;;9.30;1.00;;;;;;4943993;28;20230;-67
2022/03/31 10:46:18;;;;;;;22.13;17.63;;;9.50;99.90;;;;;;4942867;28;20233;-68
2022/03/31 10:48:54;;;;;;;22.33;17.80;;;9.20;99.90;;;;;;4944963;28;20229;-67
2022/03/31 10:51:35;;;;;;;24.33;17.43;;;9.00;1.00;;;;;;4926724;28;20297;-67
2022/03/31 10:54:06;;;;;;;24.00;18.07;;;9.20;1.00;;;;;;4963074;28;20194;-69
2022/03/31 10:56:33;;;;;;;25.30;17.43;;;9.80;1.00;;;;;;4958000;28;20230;-68
2022/03/31 10:59:04;;;;;;;26.67;18.60;;;9.50;99.90;;;;;;4954154;28;20198;-67
2022/03/31 11:01:36;;;;;;;23.37;17.73;;;9.20;99.90;;;;;;4941602;28;20202;-67
2022/03/31 11:04:08;;;;;;;26.33;18.77;;;9.00;1.00;;;;;;4938408;28;20199;-68
2022/03/31 11:06:52;;;;;;;30.20;20.73;;;8.90;1.00;;;;;;4957017;28;20273;-67
2022/03/31 11:09:26;;;;;;;29.97;20.30;;;9.40;1.00;;;;;;4945391;28;20197;-68
2022/03/31 11:11:55;;;;;;;27.87;20.13;;;9.30;1.00;;;;;;4940249;28;20209;-68
2022/03/31 11:14:23;;;;;;;34.13;21.83;;;9.20;1.00;;;;;;4941296;28;20298;-67
2022/03/31 11:16:50;;;;;;;35.10;23.53;;;8.90;1.00;;;;;;4941899;28;20209;-68
2022/03/31 11:19:20;;;;;;;34.43;23.50;;;8.90;1.00;;;;;;4942527;28;20242;-67
2022/03/31 11:21:50;;;;;;;33.70;23.47;;;8.70;1.00;;;;;;4937216;28;20399;-67
2022/03/31 11:24:24;;;;;;;38.67;24.20;;;8.70;1.00;;;;;;4957034;28;20683;-67
2022/03/31 11:26:54;;;;;;;35.53;23.53;;;8.70;1.00;;;;;;4940858;28;20573;-66
2022/03/31 11:29:26;;;;;;;33.80;22.63;;;8.60;1.00;;;;;;4935818;28;20313;-66
2022/03/31 11:31:54;;;;;;;32.60;22.30;;;8.60;1.00;;;;;;4926336;28;20238;-65
2022/03/31 11:34:26;;;;;;;36.17;23.10;;;8.90;1.00;;;;;;4940674;28;20194;-66
2022/03/31 11:36:57;;;;;;;38.97;25.00;;;8.60;1.00;;;;;;4913553;28;20553;-66
2022/03/31 11:39:30;;;;;;;38.03;23.47;;;8.60;1.00;;;;;;4936307;28;20198;-65
2022/03/31 11:42:00;;;;;;;40.43;24.23;;;8.40;1.00;;;;;;4940902;28;20194;-66
2022/03/31 11:44:30;;;;;;;32.53;22.93;;;8.40;1.00;;;;;;4942773;28;20214;-66
2022/03/31 11:46:57;;;;;;;38.23;25.37;;;8.40;1.00;;;;;;4942987;28;20206;-66
2022/03/31 11:49:28;;;;;;;38.17;23.83;;;8.50;1.00;;;;;;4935135;28;20221;-66
2022/03/31 11:51:58;;;;;;;38.77;24.07;;;8.60;1.00;;;;;;4935419;28;20228;-66
2022/03/31 11:54:26;;;;;;;36.67;24.37;;;8.60;1.00;;;;;;4942466;28;20285;-68
2022/03/31 11:57:07;;;;;;;38.83;26.87;;;8.80;1.00;;;;;;4940916;28;20210;-67
2022/03/31 11:59:35;;;;;;;42.50;28.43;;;8.80;1.00;;;;;;4937041;28;20207;-66
2022/03/31 12:02:14;;;;;;;41.33;26.67;;;8.80;95.30;;;;;;4936241;28;20202;-66
2022/03/31 12:04:46;;;;;;;40.57;28.27;;;8.50;1.00;;;;;;4926258;28;20747;-66
2022/03/31 12:07:19;;;;;;;43.17;28.63;;;8.60;99.80;;;;;;4959119;28;20218;-66
2022/03/31 12:09:51;;;;;;;41.90;27.83;;;8.60;1.00;;;;;;4961747;28;20194;-67
2022/03/31 12:12:18;;;;;;;39.50;27.20;;;8.70;1.00;;;;;;4942507;28;20218;-66
2022/03/31 12:15:00;;;;;;;39.43;28.30;;;8.40;1.00;;;;;;4959744;28;20304;-67
2022/03/31 12:17:27;;;;;;;39.23;26.57;;;8.70;27.20;;;;;;4927552;28;20222;-66
2022/03/31 12:19:56;;;;;;;40.73;28.33;;;8.60;1.00;;;;;;4927156;28;20282;-65
2022/03/31 12:22:34;;;;;;;42.97;27.33;;;8.30;56.50;;;;;;4958571;28;20207;-67
2022/03/31 12:25:04;;;;;;;39.23;26.30;;;8.20;99.90;;;;;;4928917;28;20734;-66
2022/03/31 12:27:31;;;;;;;39.20;26.20;;;8.20;57.20;;;;;;4942267;28;20261;-66
2022/03/31 12:30:00;;;;;;;39.20;27.40;;;8.20;24.10;;;;;;4929376;28;20280;-65
2022/03/31 12:32:33;;;;;;;41.87;27.63;;;8.10;99.90;;;;;;4944791;28;20230;-66
2022/03/31 12:35:01;;;;;;;41.03;27.27;;;8.10;99.90;;;;;;4956398;28;20342;-67
2022/03/31 12:37:31;;;;;;;41.13;26.73;;;8.10;99.90;;;;;;4924456;28;20204;-65
2022/03/31 12:39:59;;;;;;;40.73;26.83;;;8.00;99.90;;;;;;4943224;28;20977;-65
2022/03/31 12:42:26;;;;;;;40.80;25.20;;;7.80;1.00;;;;;;4942968;28;20238;-65
2022/03/31 12:44:53;;;;;;;39.83;26.53;;;7.80;99.90;;;;;;4956572;28;20554;-65
2022/03/31 12:47:23;;;;;;;41.37;26.63;;;7.90;1.00;;;;;;4937122;28;20210;-65
2022/03/31 12:49:51;;;;;;;38.63;26.00;;;7.70;1.00;;;;;;4942436;28;20297;-65
2022/03/31 12:52:20;;;;;;;40.83;26.40;;;7.50;1.00;;;;;;4943801;28;20720;-65
2022/03/31 12:54:51;;;;;;;41.63;26.50;;;7.40;1.00;;;;;;4961145;28;20221;-65
2022/03/31 12:57:21;;;;;;;45.57;27.73;;;7.40;1.00;;;;;;4940360;28;20226;-68
2022/03/31 13:00:13;;;;;;;39.47;25.70;;;7.50;1.00;;;;;;4943649;28;20206;-65
2022/03/31 13:02:43;;;;;;;39.90;26.47;;;7.30;1.00;;;;;;4961275;28;20205;-63
2022/03/31 13:05:21;;;;;;;40.43;26.13;;;7.50;1.00;;;;;;4943835;28;20210;-63